EJU65TH LIML-EDDF
Flight info
| Callsign | EJU65TH |
|---|---|
| Flight time | 0h 51m |
| Altitude | 30000 |
| Route | PEPAG N851 UTAVO DCT ROLSA DCT LADOL T163 EMPAX EMPAX5B |
| Aircraft | A20N/M-SDE2E3FGHIJ1RWXYZ/LB1G1 |
Departure
| Time | 2026-04-18 08:45 |
|---|---|
| Airport | Milano Linate Airport (LIML) |
Arrival
| Time | 2026-04-18 09:37 |
|---|---|
| Airport | Frankfurt Main Airport (EDDF) |
| Time | Latitude | Longitude | Altitude | Speed | Heading |
|---|---|---|---|---|---|
| 2026-04-18 08:32 | 45.45975 | 9.27903 | 360 ft | 0 kts | 360° |
| 2026-04-18 08:37 | 45.45960 | 9.27903 | 363 ft | 2 kts | 0° |
| 2026-04-18 08:37 | 45.45944 | 9.27903 | 359 ft | 2 kts | 1° |
| 2026-04-18 08:38 | 45.45927 | 9.27902 | 362 ft | 2 kts | 6° |
| 2026-04-18 08:38 | 45.45912 | 9.27893 | 359 ft | 2 kts | 57° |
| 2026-04-18 08:38 | 45.45908 | 9.27878 | 363 ft | 1 kts | 88° |
| 2026-04-18 08:38 | 45.45908 | 9.27877 | 363 ft | 0 kts | 88° |
| 2026-04-18 08:39 | 45.45908 | 9.27881 | 364 ft | 2 kts | 88° |
| 2026-04-18 08:39 | 45.45908 | 9.27933 | 362 ft | 8 kts | 90° |
| 2026-04-18 08:39 | 45.45878 | 9.27979 | 362 ft | 8 kts | 159° |
| 2026-04-18 08:39 | 45.45798 | 9.27982 | 361 ft | 15 kts | 180° |
| 2026-04-18 08:40 | 45.45681 | 9.27980 | 360 ft | 17 kts | 179° |
| 2026-04-18 08:40 | 45.45551 | 9.27977 | 360 ft | 21 kts | 181° |
| 2026-04-18 08:40 | 45.45410 | 9.27976 | 360 ft | 17 kts | 182° |
| 2026-04-18 08:40 | 45.45317 | 9.27926 | 363 ft | 17 kts | 208° |
| 2026-04-18 08:41 | 45.45181 | 9.27869 | 363 ft | 24 kts | 180° |
| 2026-04-18 08:41 | 45.45004 | 9.27890 | 360 ft | 25 kts | 174° |
| 2026-04-18 08:41 | 45.44824 | 9.27941 | 360 ft | 27 kts | 175° |
| 2026-04-18 08:41 | 45.44631 | 9.27961 | 362 ft | 28 kts | 175° |
| 2026-04-18 08:42 | 45.44435 | 9.27982 | 360 ft | 27 kts | 175° |
| 2026-04-18 08:42 | 45.44245 | 9.28003 | 362 ft | 28 kts | 176° |
| 2026-04-18 08:42 | 45.44048 | 9.28024 | 360 ft | 27 kts | 175° |
| 2026-04-18 08:42 | 45.43854 | 9.28045 | 360 ft | 28 kts | 175° |
| 2026-04-18 08:43 | 45.43661 | 9.28066 | 366 ft | 29 kts | 176° |
| 2026-04-18 08:43 | 45.43502 | 9.28080 | 364 ft | 15 kts | 181° |
| 2026-04-18 08:43 | 45.43443 | 9.28012 | 361 ft | 11 kts | 264° |
| 2026-04-18 08:43 | 45.43439 | 9.27889 | 365 ft | 13 kts | 267° |
| 2026-04-18 08:44 | 45.43454 | 9.27822 | 368 ft | 7 kts | 335° |
| 2026-04-18 08:44 | 45.43482 | 9.27816 | 364 ft | 0 kts | 355° |
| 2026-04-18 08:44 | 45.43490 | 9.27815 | 363 ft | 10 kts | 355° |
| 2026-04-18 08:44 | 45.43816 | 9.27782 | 366 ft | 83 kts | 355° |
| 2026-04-18 08:45 | 45.44599 | 9.27694 | 362 ft | 139 kts | 355° |
| 2026-04-18 08:45 | 45.45659 | 9.27573 | 686 ft | 155 kts | 356° |
| 2026-04-18 08:45 | 45.46718 | 9.27447 | 1406 ft | 150 kts | 358° |
| 2026-04-18 08:45 | 45.47810 | 9.27337 | 1897 ft | 168 kts | 358° |
| 2026-04-18 08:46 | 45.49046 | 9.27218 | 2392 ft | 188 kts | 358° |
| 2026-04-18 08:46 | 45.50412 | 9.27016 | 3023 ft | 208 kts | 347° |
| 2026-04-18 08:46 | 45.51873 | 9.26410 | 3548 ft | 231 kts | 345° |
| 2026-04-18 08:46 | 45.53489 | 9.25751 | 4138 ft | 251 kts | 344° |
| 2026-04-18 08:47 | 45.55224 | 9.25044 | 4847 ft | 266 kts | 344° |
| 2026-04-18 08:47 | 45.57012 | 9.24312 | 5795 ft | 269 kts | 343° |
| 2026-04-18 08:47 | 45.58794 | 9.23580 | 6731 ft | 272 kts | 343° |
| 2026-04-18 08:47 | 45.60619 | 9.22829 | 7698 ft | 274 kts | 343° |
| 2026-04-18 08:48 | 45.62458 | 9.22072 | 8631 ft | 277 kts | 343° |
| 2026-04-18 08:48 | 45.64324 | 9.21301 | 9569 ft | 281 kts | 343° |
| 2026-04-18 08:48 | 45.66213 | 9.20520 | 10447 ft | 286 kts | 343° |
| 2026-04-18 08:48 | 45.68188 | 9.19703 | 10869 ft | 307 kts | 343° |
| 2026-04-18 08:49 | 45.70313 | 9.18822 | 11184 ft | 329 kts | 343° |
| 2026-04-18 08:49 | 45.72539 | 9.17901 | 11896 ft | 335 kts | 343° |
| 2026-04-18 08:49 | 45.74784 | 9.16969 | 12751 ft | 337 kts | 343° |
| 2026-04-18 08:49 | 45.77050 | 9.16029 | 13596 ft | 341 kts | 343° |
| 2026-04-18 08:50 | 45.79335 | 9.15082 | 14381 ft | 344 kts | 343° |
| 2026-04-18 08:50 | 45.81647 | 9.14122 | 15098 ft | 348 kts | 343° |
| 2026-04-18 08:50 | 45.83985 | 9.13150 | 15802 ft | 352 kts | 343° |
| 2026-04-18 08:50 | 45.86346 | 9.12168 | 16528 ft | 355 kts | 343° |
| 2026-04-18 08:51 | 45.88734 | 9.11174 | 17226 ft | 359 kts | 343° |
| 2026-04-18 08:51 | 45.91145 | 9.10170 | 17913 ft | 363 kts | 343° |
| 2026-04-18 08:51 | 45.93585 | 9.09152 | 18589 ft | 366 kts | 342° |
| 2026-04-18 08:51 | 45.96037 | 9.08128 | 19223 ft | 369 kts | 342° |
| 2026-04-18 08:52 | 45.98531 | 9.07195 | 19813 ft | 373 kts | 348° |
| 2026-04-18 08:52 | 46.01110 | 9.06695 | 20422 ft | 376 kts | 352° |
| 2026-04-18 08:52 | 46.03728 | 9.06288 | 21001 ft | 380 kts | 352° |
| 2026-04-18 08:52 | 46.06354 | 9.05862 | 21634 ft | 381 kts | 352° |
| 2026-04-18 08:53 | 46.09009 | 9.05426 | 22165 ft | 386 kts | 352° |
| 2026-04-18 08:53 | 46.11684 | 9.04987 | 22775 ft | 389 kts | 352° |
| 2026-04-18 08:53 | 46.14383 | 9.04545 | 23348 ft | 392 kts | 352° |
| 2026-04-18 08:53 | 46.17107 | 9.04103 | 23890 ft | 396 kts | 352° |
| 2026-04-18 08:54 | 46.19867 | 9.03715 | 24362 ft | 400 kts | 353° |
| 2026-04-18 08:54 | 46.22647 | 9.03358 | 24812 ft | 403 kts | 353° |
| 2026-04-18 08:54 | 46.25457 | 9.02998 | 25252 ft | 407 kts | 353° |
| 2026-04-18 08:54 | 46.28291 | 9.02630 | 25694 ft | 410 kts | 353° |
| 2026-04-18 08:55 | 46.31142 | 9.02254 | 26121 ft | 413 kts | 353° |
| 2026-04-18 08:55 | 46.34016 | 9.01869 | 26520 ft | 417 kts | 353° |
| 2026-04-18 08:55 | 46.36919 | 9.01480 | 26944 ft | 420 kts | 353° |
| 2026-04-18 08:55 | 46.39843 | 9.01088 | 27356 ft | 423 kts | 353° |
| 2026-04-18 08:56 | 46.42788 | 9.00691 | 27745 ft | 427 kts | 352° |
| 2026-04-18 08:56 | 46.45760 | 9.00292 | 28084 ft | 430 kts | 352° |
| 2026-04-18 08:56 | 46.48737 | 8.99891 | 28502 ft | 432 kts | 352° |
| 2026-04-18 08:56 | 46.51745 | 8.99486 | 28864 ft | 435 kts | 352° |
| 2026-04-18 08:57 | 46.57819 | 8.98666 | 29571 ft | 441 kts | 352° |
| 2026-04-18 08:57 | 46.60889 | 8.98250 | 29924 ft | 443 kts | 352° |
| 2026-04-18 08:57 | 46.63969 | 8.97834 | 30182 ft | 446 kts | 352° |
| 2026-04-18 08:58 | 46.70203 | 8.96991 | 30209 ft | 445 kts | 352° |
| 2026-04-18 08:58 | 46.76375 | 8.96152 | 30212 ft | 445 kts | 352° |
| 2026-04-18 08:59 | 46.82545 | 8.95312 | 30210 ft | 445 kts | 352° |
| 2026-04-18 08:59 | 46.88663 | 8.94477 | 30215 ft | 445 kts | 352° |
| 2026-04-18 09:00 | 46.94529 | 8.93674 | 30208 ft | 445 kts | 352° |
| 2026-04-18 09:00 | 47.00652 | 8.92834 | 30207 ft | 444 kts | 352° |
| 2026-04-18 09:01 | 47.06843 | 8.91983 | 30201 ft | 445 kts | 352° |
| 2026-04-18 09:01 | 47.13012 | 8.91132 | 30202 ft | 444 kts | 352° |
| 2026-04-18 09:02 | 47.19126 | 8.90289 | 30200 ft | 444 kts | 352° |
| 2026-04-18 09:02 | 47.23235 | 8.89720 | 30203 ft | 444 kts | 352° |
| 2026-04-18 09:03 | 47.27933 | 8.89085 | 30206 ft | 445 kts | 353° |
| 2026-04-18 09:04 | 47.34144 | 8.89313 | 30203 ft | 447 kts | 360° |
| 2026-04-18 09:04 | 47.40363 | 8.89754 | 30207 ft | 447 kts | 359° |
| 2026-04-18 09:05 | 47.46582 | 8.90194 | 30209 ft | 447 kts | 360° |
| 2026-04-18 09:05 | 47.52847 | 8.90647 | 30201 ft | 447 kts | 360° |
| 2026-04-18 09:06 | 47.59068 | 8.91099 | 30199 ft | 448 kts | 359° |
| 2026-04-18 09:06 | 47.65292 | 8.91552 | 30197 ft | 448 kts | 359° |
| 2026-04-18 09:07 | 47.71515 | 8.92008 | 30192 ft | 448 kts | 359° |
| 2026-04-18 09:07 | 47.77751 | 8.92465 | 30187 ft | 448 kts | 359° |
| 2026-04-18 09:08 | 47.84027 | 8.92924 | 30185 ft | 449 kts | 359° |
| 2026-04-18 09:08 | 47.90271 | 8.93384 | 30181 ft | 449 kts | 359° |
| 2026-04-18 09:09 | 47.96505 | 8.93842 | 30176 ft | 449 kts | 359° |
| 2026-04-18 09:09 | 48.02760 | 8.94304 | 30181 ft | 449 kts | 359° |
| 2026-04-18 09:10 | 48.09011 | 8.94767 | 30174 ft | 449 kts | 359° |
| 2026-04-18 09:10 | 48.15259 | 8.95231 | 30175 ft | 449 kts | 359° |
| 2026-04-18 09:11 | 48.21507 | 8.95922 | 30182 ft | 451 kts | 2° |
| 2026-04-18 09:11 | 48.27735 | 8.96959 | 30168 ft | 451 kts | 3° |
| 2026-04-18 09:12 | 48.33986 | 8.97952 | 30165 ft | 451 kts | 2° |
| 2026-04-18 09:12 | 48.40226 | 8.98907 | 30169 ft | 451 kts | 2° |
| 2026-04-18 09:13 | 48.46449 | 8.99855 | 30161 ft | 451 kts | 2° |
| 2026-04-18 09:13 | 48.51637 | 9.00646 | 30164 ft | 450 kts | 2° |
| 2026-04-18 09:14 | 48.57873 | 9.01598 | 30162 ft | 451 kts | 2° |
| 2026-04-18 09:14 | 48.64125 | 9.02555 | 30156 ft | 451 kts | 2° |
| 2026-04-18 09:15 | 48.67249 | 9.03036 | 29959 ft | 451 kts | 2° |
| 2026-04-18 09:15 | 48.70357 | 9.03519 | 29679 ft | 448 kts | 2° |
| 2026-04-18 09:15 | 48.73447 | 9.04003 | 29396 ft | 445 kts | 2° |
| 2026-04-18 09:15 | 48.76517 | 9.04488 | 29008 ft | 443 kts | 2° |
| 2026-04-18 09:16 | 48.79586 | 9.04972 | 28251 ft | 445 kts | 2° |
| 2026-04-18 09:16 | 48.82689 | 9.05459 | 27259 ft | 450 kts | 3° |
| 2026-04-18 09:16 | 48.85807 | 9.05949 | 26408 ft | 451 kts | 3° |
| 2026-04-18 09:16 | 48.88910 | 9.06438 | 25950 ft | 443 kts | 3° |
| 2026-04-18 09:17 | 48.91884 | 9.06913 | 25744 ft | 429 kts | 3° |
| 2026-04-18 09:17 | 48.94848 | 9.07394 | 25488 ft | 416 kts | 3° |
| 2026-04-18 09:17 | 48.97692 | 9.07860 | 25257 ft | 412 kts | 3° |
| 2026-04-18 09:17 | 49.00509 | 9.08431 | 24976 ft | 413 kts | 5° |
| 2026-04-18 09:18 | 49.03356 | 9.09004 | 24388 ft | 415 kts | 4° |
| 2026-04-18 09:18 | 49.06246 | 9.09554 | 23545 ft | 421 kts | 4° |
| 2026-04-18 09:18 | 49.09142 | 9.10128 | 23030 ft | 415 kts | 5° |
| 2026-04-18 09:18 | 49.11964 | 9.10360 | 22799 ft | 398 kts | 355° |
| 2026-04-18 09:19 | 49.14712 | 9.10196 | 22280 ft | 393 kts | 354° |
| 2026-04-18 09:19 | 49.17433 | 9.09973 | 21707 ft | 389 kts | 354° |
| 2026-04-18 09:19 | 49.20121 | 9.09740 | 21155 ft | 386 kts | 354° |
| 2026-04-18 09:19 | 49.22797 | 9.09514 | 20620 ft | 382 kts | 354° |
| 2026-04-18 09:20 | 49.25445 | 9.09298 | 20084 ft | 380 kts | 354° |
| 2026-04-18 09:20 | 49.28068 | 9.09087 | 19559 ft | 376 kts | 354° |
| 2026-04-18 09:20 | 49.30677 | 9.08880 | 19048 ft | 373 kts | 354° |
| 2026-04-18 09:20 | 49.33268 | 9.08676 | 18524 ft | 371 kts | 354° |
| 2026-04-18 09:21 | 49.35832 | 9.08474 | 17970 ft | 368 kts | 354° |
| 2026-04-18 09:21 | 49.38377 | 9.08272 | 17421 ft | 365 kts | 354° |
| 2026-04-18 09:21 | 49.40900 | 9.08072 | 16871 ft | 362 kts | 354° |
| 2026-04-18 09:21 | 49.43414 | 9.07873 | 16344 ft | 359 kts | 354° |
| 2026-04-18 09:22 | 49.45899 | 9.07676 | 15826 ft | 357 kts | 354° |
| 2026-04-18 09:22 | 49.48373 | 9.07481 | 15301 ft | 355 kts | 354° |
| 2026-04-18 09:22 | 49.50829 | 9.07286 | 14800 ft | 352 kts | 354° |
| 2026-04-18 09:22 | 49.53265 | 9.07092 | 14316 ft | 350 kts | 354° |
| 2026-04-18 09:23 | 49.55664 | 9.06901 | 13805 ft | 348 kts | 354° |
| 2026-04-18 09:23 | 49.58103 | 9.06707 | 13256 ft | 345 kts | 354° |
| 2026-04-18 09:23 | 49.60464 | 9.06517 | 12695 ft | 344 kts | 355° |
| 2026-04-18 09:23 | 49.62848 | 9.06325 | 12166 ft | 342 kts | 355° |
| 2026-04-18 09:24 | 49.65222 | 9.06135 | 11635 ft | 341 kts | 355° |
| 2026-04-18 09:24 | 49.67590 | 9.05945 | 11133 ft | 340 kts | 355° |
| 2026-04-18 09:24 | 49.69950 | 9.05754 | 10616 ft | 339 kts | 355° |
| 2026-04-18 09:24 | 49.72270 | 9.05569 | 10427 ft | 328 kts | 355° |
| 2026-04-18 09:25 | 49.74509 | 9.05390 | 10312 ft | 316 kts | 355° |
| 2026-04-18 09:25 | 49.76659 | 9.05218 | 10195 ft | 303 kts | 355° |
| 2026-04-18 09:25 | 49.78727 | 9.05053 | 10006 ft | 293 kts | 355° |
| 2026-04-18 09:25 | 49.80657 | 9.04897 | 9646 ft | 291 kts | 355° |
| 2026-04-18 09:26 | 49.82674 | 9.04728 | 9279 ft | 289 kts | 356° |
| 2026-04-18 09:26 | 49.84680 | 9.04575 | 8940 ft | 288 kts | 356° |
| 2026-04-18 09:26 | 49.86671 | 9.04417 | 8506 ft | 287 kts | 356° |
| 2026-04-18 09:26 | 49.88661 | 9.04257 | 8111 ft | 286 kts | 356° |
| 2026-04-18 09:27 | 49.90627 | 9.04523 | 7768 ft | 286 kts | 18° |
| 2026-04-18 09:27 | 49.92329 | 9.06054 | 7408 ft | 285 kts | 44° |
| 2026-04-18 09:27 | 49.93429 | 9.08577 | 7024 ft | 284 kts | 68° |
| 2026-04-18 09:27 | 49.94154 | 9.11416 | 6701 ft | 282 kts | 63° |
| 2026-04-18 09:28 | 49.95405 | 9.13729 | 6347 ft | 282 kts | 35° |
| 2026-04-18 09:28 | 49.97163 | 9.14893 | 6177 ft | 271 kts | 7° |
| 2026-04-18 09:28 | 49.98976 | 9.14680 | 6087 ft | 257 kts | 341° |
| 2026-04-18 09:28 | 50.00614 | 9.13683 | 5959 ft | 249 kts | 334° |
| 2026-04-18 09:29 | 50.02182 | 9.12548 | 5789 ft | 246 kts | 333° |
| 2026-04-18 09:29 | 50.03726 | 9.11478 | 5654 ft | 241 kts | 335° |
| 2026-04-18 09:29 | 50.05281 | 9.10497 | 5511 ft | 242 kts | 336° |
| 2026-04-18 09:29 | 50.06854 | 9.09547 | 5385 ft | 242 kts | 337° |
| 2026-04-18 09:30 | 50.08428 | 9.08636 | 5275 ft | 242 kts | 338° |
| 2026-04-18 09:30 | 50.09953 | 9.07570 | 5146 ft | 239 kts | 321° |
| 2026-04-18 09:30 | 50.10963 | 9.05601 | 5013 ft | 234 kts | 289° |
| 2026-04-18 09:30 | 50.11321 | 9.03142 | 4890 ft | 233 kts | 277° |
| 2026-04-18 09:31 | 50.11579 | 9.00657 | 4772 ft | 232 kts | 277° |
| 2026-04-18 09:31 | 50.11710 | 8.99385 | 4697 ft | 231 kts | 277° |
| 2026-04-18 09:31 | 50.11959 | 8.97025 | 4603 ft | 232 kts | 278° |
| 2026-04-18 09:31 | 50.12165 | 8.94538 | 4459 ft | 230 kts | 269° |
| 2026-04-18 09:32 | 50.11930 | 8.92098 | 4326 ft | 228 kts | 251° |
| 2026-04-18 09:32 | 50.11376 | 8.89760 | 4058 ft | 230 kts | 249° |
| 2026-04-18 09:32 | 50.10848 | 8.87416 | 3989 ft | 220 kts | 252° |
| 2026-04-18 09:32 | 50.10354 | 8.85232 | 3932 ft | 217 kts | 249° |
| 2026-04-18 09:33 | 50.09818 | 8.82986 | 3653 ft | 219 kts | 250° |
| 2026-04-18 09:33 | 50.09290 | 8.80768 | 3390 ft | 219 kts | 249° |
| 2026-04-18 09:33 | 50.08761 | 8.78544 | 3040 ft | 217 kts | 250° |
| 2026-04-18 09:33 | 50.08240 | 8.76366 | 2764 ft | 212 kts | 250° |
| 2026-04-18 09:34 | 50.07731 | 8.74233 | 2475 ft | 208 kts | 251° |
| 2026-04-18 09:34 | 50.07235 | 8.72162 | 2212 ft | 200 kts | 251° |
| 2026-04-18 09:34 | 50.06777 | 8.70247 | 1974 ft | 183 kts | 251° |
| 2026-04-18 09:34 | 50.06352 | 8.68464 | 1718 ft | 168 kts | 251° |
| 2026-04-18 09:35 | 50.05961 | 8.66829 | 1491 ft | 154 kts | 251° |
| 2026-04-18 09:35 | 50.05595 | 8.65293 | 1300 ft | 152 kts | 251° |
| 2026-04-18 09:35 | 50.05225 | 8.63748 | 1091 ft | 152 kts | 251° |
| 2026-04-18 09:35 | 50.04859 | 8.62216 | 900 ft | 150 kts | 251° |
| 2026-04-18 09:36 | 50.04482 | 8.60693 | 688 ft | 152 kts | 248° |
| 2026-04-18 09:36 | 50.04120 | 8.59151 | 481 ft | 151 kts | 251° |
| 2026-04-18 09:36 | 50.03765 | 8.57638 | 364 ft | 139 kts | 249° |
| 2026-04-18 09:36 | 50.03533 | 8.56665 | 364 ft | 64 kts | 249° |
| 2026-04-18 09:37 | 50.03429 | 8.56212 | 363 ft | 22 kts | 265° |
| 2026-04-18 09:37 | 50.03445 | 8.55972 | 361 ft | 21 kts | 280° |
| 2026-04-18 09:37 | 50.03463 | 8.55814 | 366 ft | 15 kts | 281° |
| 2026-04-18 09:37 | 50.03492 | 8.55709 | 367 ft | 10 kts | 316° |
| 2026-04-18 09:38 | 50.03541 | 8.55724 | 365 ft | 9 kts | 31° |
| 2026-04-18 09:38 | 50.03584 | 8.55860 | 364 ft | 20 kts | 69° |
| 2026-04-18 09:38 | 50.03645 | 8.56111 | 366 ft | 29 kts | 70° |
| 2026-04-18 09:38 | 50.03715 | 8.56403 | 363 ft | 29 kts | 70° |
| 2026-04-18 09:39 | 50.03787 | 8.56702 | 364 ft | 30 kts | 69° |
| 2026-04-18 09:39 | 50.03845 | 8.56953 | 362 ft | 24 kts | 70° |
| 2026-04-18 09:39 | 50.03906 | 8.57206 | 364 ft | 26 kts | 70° |
| 2026-04-18 09:39 | 50.03970 | 8.57473 | 368 ft | 26 kts | 69° |
| 2026-04-18 09:40 | 50.04031 | 8.57724 | 368 ft | 24 kts | 69° |
| 2026-04-18 09:40 | 50.04086 | 8.57959 | 365 ft | 24 kts | 71° |
| 2026-04-18 09:40 | 50.04150 | 8.58222 | 364 ft | 28 kts | 69° |
| 2026-04-18 09:40 | 50.04220 | 8.58513 | 364 ft | 28 kts | 70° |
| 2026-04-18 09:41 | 50.04285 | 8.58788 | 365 ft | 26 kts | 69° |
| 2026-04-18 09:41 | 50.04346 | 8.59040 | 365 ft | 24 kts | 70° |
| 2026-04-18 09:41 | 50.04401 | 8.59271 | 366 ft | 22 kts | 69° |
| 2026-04-18 09:41 | 50.04453 | 8.59449 | 363 ft | 13 kts | 47° |
| 2026-04-18 09:42 | 50.04530 | 8.59472 | 362 ft | 11 kts | 359° |
| 2026-04-18 09:42 | 50.04608 | 8.59467 | 362 ft | 13 kts | 356° |
| 2026-04-18 09:42 | 50.04713 | 8.59436 | 363 ft | 16 kts | 342° |
| 2026-04-18 09:42 | 50.04782 | 8.59396 | 365 ft | 8 kts | 339° |
| 2026-04-18 09:43 | 50.04812 | 8.59378 | 362 ft | 2 kts | 339° |
| 2026-04-18 09:43 | 50.04818 | 8.59375 | 366 ft | 1 kts | 339° |
| 2026-04-18 09:43 | 50.04826 | 8.59370 | 364 ft | 3 kts | 339° |
| 2026-04-18 09:43 | 50.04876 | 8.59361 | 362 ft | 12 kts | 7° |
| 2026-04-18 09:44 | 50.04969 | 8.59355 | 364 ft | 13 kts | 341° |
| 2026-04-18 09:44 | 50.05057 | 8.59293 | 363 ft | 13 kts | 323° |
| 2026-04-18 09:44 | 50.05073 | 8.59192 | 369 ft | 10 kts | 252° |
| 2026-04-18 09:44 | 50.05042 | 8.59062 | 367 ft | 16 kts | 250° |
| 2026-04-18 09:45 | 50.05003 | 8.58899 | 363 ft | 13 kts | 250° |
| 2026-04-18 09:45 | 50.05006 | 8.58817 | 369 ft | 6 kts | 315° |
| 2026-04-18 09:45 | 50.05041 | 8.58788 | 366 ft | 5 kts | 326° |
| 2026-04-18 09:45 | 50.05056 | 8.58768 | 363 ft | 1 kts | 317° |
| 2026-04-18 09:46 | 50.05064 | 8.58756 | 365 ft | 1 kts | 316° |